sensor_id;sensor_type;location;lat;lon;timestamp;temperature;humidity
7700;DHT22;3892;47.794;19.126;2023-08-20T00:01:00;28.70;51.50
7700;DHT22;3892;47.794;19.126;2023-08-20T00:03:30;28.70;51.40
7700;DHT22;3892;47.794;19.126;2023-08-20T00:06:00;28.70;51.50
7700;DHT22;3892;47.794;19.126;2023-08-20T00:08:29;28.70;51.30
7700;DHT22;3892;47.794;19.126;2023-08-20T00:10:57;28.70;51.30
7700;DHT22;3892;47.794;19.126;2023-08-20T00:13:25;28.70;51.30
7700;DHT22;3892;47.794;19.126;2023-08-20T00:15:53;28.60;51.30
7700;DHT22;3892;47.794;19.126;2023-08-20T00:18:22;28.60;51.30
7700;DHT22;3892;47.794;19.126;2023-08-20T00:20:51;28.60;51.40
7700;DHT22;3892;47.794;19.126;2023-08-20T00:23:21;28.60;51.50
7700;DHT22;3892;47.794;19.126;2023-08-20T00:25:49;28.60;51.50
7700;DHT22;3892;47.794;19.126;2023-08-20T00:28:19;28.50;51.50
7700;DHT22;3892;47.794;19.126;2023-08-20T00:30:47;28.50;51.70
7700;DHT22;3892;47.794;19.126;2023-08-20T00:33:17;28.50;51.90
7700;DHT22;3892;47.794;19.126;2023-08-20T00:35:45;28.50;51.90
7700;DHT22;3892;47.794;19.126;2023-08-20T00:38:13;28.50;51.80
7700;DHT22;3892;47.794;19.126;2023-08-20T00:40:43;28.40;51.80
7700;DHT22;3892;47.794;19.126;2023-08-20T00:43:11;28.40;52.00
7700;DHT22;3892;47.794;19.126;2023-08-20T00:45:40;28.40;52.00
7700;DHT22;3892;47.794;19.126;2023-08-20T00:48:10;28.40;52.00
7700;DHT22;3892;47.794;19.126;2023-08-20T00:50:39;28.40;51.70
7700;DHT22;3892;47.794;19.126;2023-08-20T00:53:08;28.40;51.60
7700;DHT22;3892;47.794;19.126;2023-08-20T00:55:38;28.30;51.60
7700;DHT22;3892;47.794;19.126;2023-08-20T00:58:07;28.30;51.60
7700;DHT22;3892;47.794;19.126;2023-08-20T01:00:36;28.30;51.50
7700;DHT22;3892;47.794;19.126;2023-08-20T01:03:04;28.30;51.50
7700;DHT22;3892;47.794;19.126;2023-08-20T01:05:39;28.30;51.40
7700;DHT22;3892;47.794;19.126;2023-08-20T01:08:21;28.30;51.40
7700;DHT22;3892;47.794;19.126;2023-08-20T01:10:57;28.30;51.40
7700;DHT22;3892;47.794;19.126;2023-08-20T01:13:27;28.30;51.30
7700;DHT22;3892;47.794;19.126;2023-08-20T01:15:56;28.30;51.30
7700;DHT22;3892;47.794;19.126;2023-08-20T01:18:24;28.10;51.30
7700;DHT22;3892;47.794;19.126;2023-08-20T01:20:56;28.10;51.60
7700;DHT22;3892;47.794;19.126;2023-08-20T01:26:54;28.10;51.90
7700;DHT22;3892;47.794;19.126;2023-08-20T01:29:26;28.10;51.70
7700;DHT22;3892;47.794;19.126;2023-08-20T01:31:54;28.10;51.70
7700;DHT22;3892;47.794;19.126;2023-08-20T01:34:22;28.10;51.70
7700;DHT22;3892;47.794;19.126;2023-08-20T01:36:51;28.10;51.70
7700;DHT22;3892;47.794;19.126;2023-08-20T01:39:19;28.10;51.70
7700;DHT22;3892;47.794;19.126;2023-08-20T01:41:47;28.10;51.60
7700;DHT22;3892;47.794;19.126;2023-08-20T01:44:15;28.10;51.50
7700;DHT22;3892;47.794;19.126;2023-08-20T01:46:44;28.00;51.50
7700;DHT22;3892;47.794;19.126;2023-08-20T01:49:12;28.10;51.50
7700;DHT22;3892;47.794;19.126;2023-08-20T01:51:41;28.10;51.40
7700;DHT22;3892;47.794;19.126;2023-08-20T01:54:09;28.10;51.30
7700;DHT22;3892;47.794;19.126;2023-08-20T01:56:37;28.00;51.20
7700;DHT22;3892;47.794;19.126;2023-08-20T01:59:05;28.00;51.40
7700;DHT22;3892;47.794;19.126;2023-08-20T02:01:33;28.00;51.40
7700;DHT22;3892;47.794;19.126;2023-08-20T02:04:03;28.00;51.90
7700;DHT22;3892;47.794;19.126;2023-08-20T02:06:31;28.00;51.50
7700;DHT22;3892;47.794;19.126;2023-08-20T02:08:59;27.90;51.40
7700;DHT22;3892;47.794;19.126;2023-08-20T02:11:27;27.90;51.40
7700;DHT22;3892;47.794;19.126;2023-08-20T02:13:56;28.00;51.40
7700;DHT22;3892;47.794;19.126;2023-08-20T02:16:24;28.00;51.30
7700;DHT22;3892;47.794;19.126;2023-08-20T02:18:52;27.90;51.20
7700;DHT22;3892;47.794;19.126;2023-08-20T02:21:22;27.70;51.60
7700;DHT22;3892;47.794;19.126;2023-08-20T02:23:50;27.50;52.30
7700;DHT22;3892;47.794;19.126;2023-08-20T02:26:18;27.30;52.60
7700;DHT22;3892;47.794;19.126;2023-08-20T02:28:46;27.10;52.80
7700;DHT22;3892;47.794;19.126;2023-08-20T02:31:14;27.20;53.00
7700;DHT22;3892;47.794;19.126;2023-08-20T02:33:42;27.20;53.00
7700;DHT22;3892;47.794;19.126;2023-08-20T02:36:10;27.30;52.80
7700;DHT22;3892;47.794;19.126;2023-08-20T02:38:40;27.40;52.60
7700;DHT22;3892;47.794;19.126;2023-08-20T02:41:08;27.50;52.40
7700;DHT22;3892;47.794;19.126;2023-08-20T02:43:36;27.50;52.10
7700;DHT22;3892;47.794;19.126;2023-08-20T02:46:04;27.50;52.00
7700;DHT22;3892;47.794;19.126;2023-08-20T02:48:32;27.60;51.90
7700;DHT22;3892;47.794;19.126;2023-08-20T02:51:00;27.60;51.90
7700;DHT22;3892;47.794;19.126;2023-08-20T02:53:29;27.60;51.80
7700;DHT22;3892;47.794;19.126;2023-08-20T02:55:59;27.60;51.80
7700;DHT22;3892;47.794;19.126;2023-08-20T02:58:27;27.60;51.70
7700;DHT22;3892;47.794;19.126;2023-08-20T03:00:55;27.70;51.70
7700;DHT22;3892;47.794;19.126;2023-08-20T03:03:24;27.70;51.70
7700;DHT22;3892;47.794;19.126;2023-08-20T03:05:53;27.70;51.60
7700;DHT22;3892;47.794;19.126;2023-08-20T03:08:21;27.70;51.50
7700;DHT22;3892;47.794;19.126;2023-08-20T03:10:49;27.70;51.50
7700;DHT22;3892;47.794;19.126;2023-08-20T03:13:22;27.70;51.50
7700;DHT22;3892;47.794;19.126;2023-08-20T03:15:54;27.60;51.40
7700;DHT22;3892;47.794;19.126;2023-08-20T03:18:22;27.70;51.50
7700;DHT22;3892;47.794;19.126;2023-08-20T03:20:50;27.70;51.50
7700;DHT22;3892;47.794;19.126;2023-08-20T03:23:18;27.70;51.40
7700;DHT22;3892;47.794;19.126;2023-08-20T03:25:46;27.70;51.30
7700;DHT22;3892;47.794;19.126;2023-08-20T03:28:15;27.70;51.10
7700;DHT22;3892;47.794;19.126;2023-08-20T03:30:44;27.70;51.10
7700;DHT22;3892;47.794;19.126;2023-08-20T03:33:12;27.60;51.50
7700;DHT22;3892;47.794;19.126;2023-08-20T03:35:40;27.60;50.90
7700;DHT22;3892;47.794;19.126;2023-08-20T03:38:08;27.60;50.90
7700;DHT22;3892;47.794;19.126;2023-08-20T03:40:36;27.60;50.90
7700;DHT22;3892;47.794;19.126;2023-08-20T03:43:07;27.50;50.80
7700;DHT22;3892;47.794;19.126;2023-08-20T03:45:35;27.60;51.20
7700;DHT22;3892;47.794;19.126;2023-08-20T03:48:05;27.50;51.20
7700;DHT22;3892;47.794;19.126;2023-08-20T03:50:33;27.50;51.30
7700;DHT22;3892;47.794;19.126;2023-08-20T03:53:01;27.50;51.70
7700;DHT22;3892;47.794;19.126;2023-08-20T03:55:29;27.50;51.10
7700;DHT22;3892;47.794;19.126;2023-08-20T03:57:57;27.50;51.10
7700;DHT22;3892;47.794;19.126;2023-08-20T04:00:25;27.50;51.10
7700;DHT22;3892;47.794;19.126;2023-08-20T04:02:53;27.50;51.10
7700;DHT22;3892;47.794;19.126;2023-08-20T04:05:23;27.50;51.10
7700;DHT22;3892;47.794;19.126;2023-08-20T04:07:51;27.50;51.10
7700;DHT22;3892;47.794;19.126;2023-08-20T04:10:19;27.50;51.10
7700;DHT22;3892;47.794;19.126;2023-08-20T04:12:47;27.50;51.10
7700;DHT22;3892;47.794;19.126;2023-08-20T04:15:15;27.50;51.20
7700;DHT22;3892;47.794;19.126;2023-08-20T04:17:43;27.50;51.10
7700;DHT22;3892;47.794;19.126;2023-08-20T04:20:12;27.40;51.20
7700;DHT22;3892;47.794;19.126;2023-08-20T04:22:41;27.40;51.20
7700;DHT22;3892;47.794;19.126;2023-08-20T04:25:09;27.40;51.30
7700;DHT22;3892;47.794;19.126;2023-08-20T04:27:38;27.40;51.40
7700;DHT22;3892;47.794;19.126;2023-08-20T04:30:08;27.50;51.50
7700;DHT22;3892;47.794;19.126;2023-08-20T04:32:36;27.50;51.70
7700;DHT22;3892;47.794;19.126;2023-08-20T04:35:05;27.50;51.70
7700;DHT22;3892;47.794;19.126;2023-08-20T04:37:33;27.50;51.60
7700;DHT22;3892;47.794;19.126;2023-08-20T04:40:04;27.50;51.70
7700;DHT22;3892;47.794;19.126;2023-08-20T04:42:35;27.50;51.70
7700;DHT22;3892;47.794;19.126;2023-08-20T04:45:09;27.50;51.70
7700;DHT22;3892;47.794;19.126;2023-08-20T04:47:50;27.50;51.90
7700;DHT22;3892;47.794;19.126;2023-08-20T04:50:33;27.50;51.80
7700;DHT22;3892;47.794;19.126;2023-08-20T04:53:01;27.50;52.00
7700;DHT22;3892;47.794;19.126;2023-08-20T04:55:30;27.50;52.10
7700;DHT22;3892;47.794;19.126;2023-08-20T04:57:59;27.50;52.00
7700;DHT22;3892;47.794;19.126;2023-08-20T05:00:27;27.60;52.10
7700;DHT22;3892;47.794;19.126;2023-08-20T05:02:55;27.60;52.10
7700;DHT22;3892;47.794;19.126;2023-08-20T05:05:23;27.70;52.10
7700;DHT22;3892;47.794;19.126;2023-08-20T05:07:51;27.70;52.10
7700;DHT22;3892;47.794;19.126;2023-08-20T05:10:20;27.60;52.10
7700;DHT22;3892;47.794;19.126;2023-08-20T05:12:49;27.60;52.40
7700;DHT22;3892;47.794;19.126;2023-08-20T05:15:18;27.50;52.50
7700;DHT22;3892;47.794;19.126;2023-08-20T05:17:46;27.40;52.60
7700;DHT22;3892;47.794;19.126;2023-08-20T05:20:14;27.50;52.70
7700;DHT22;3892;47.794;19.126;2023-08-20T05:22:42;27.40;52.90
7700;DHT22;3892;47.794;19.126;2023-08-20T05:25:10;27.40;52.70
7700;DHT22;3892;47.794;19.126;2023-08-20T05:27:38;27.40;52.90
7700;DHT22;3892;47.794;19.126;2023-08-20T05:30:10;27.40;52.80
7700;DHT22;3892;47.794;19.126;2023-08-20T05:32:38;27.50;52.90
7700;DHT22;3892;47.794;19.126;2023-08-20T05:35:07;27.50;52.60
7700;DHT22;3892;47.794;19.126;2023-08-20T05:37:35;27.60;52.60
7700;DHT22;3892;47.794;19.126;2023-08-20T05:40:03;27.70;52.70
7700;DHT22;3892;47.794;19.126;2023-08-20T05:42:32;27.70;53.10
7700;DHT22;3892;47.794;19.126;2023-08-20T05:45:00;27.80;53.00
7700;DHT22;3892;47.794;19.126;2023-08-20T05:47:29;27.90;53.60
7700;DHT22;3892;47.794;19.126;2023-08-20T05:49:57;27.90;52.40
7700;DHT22;3892;47.794;19.126;2023-08-20T05:52:25;28.00;52.60
7700;DHT22;3892;47.794;19.126;2023-08-20T05:54:53;28.00;52.80
7700;DHT22;3892;47.794;19.126;2023-08-20T05:57:21;28.10;52.90
7700;DHT22;3892;47.794;19.126;2023-08-20T05:59:49;28.20;53.00
7700;DHT22;3892;47.794;19.126;2023-08-20T06:02:18;28.20;53.10
7700;DHT22;3892;47.794;19.126;2023-08-20T06:04:47;28.30;53.20
7700;DHT22;3892;47.794;19.126;2023-08-20T06:07:17;28.40;53.20
7700;DHT22;3892;47.794;19.126;2023-08-20T06:09:45;28.40;52.90
7700;DHT22;3892;47.794;19.126;2023-08-20T06:12:13;28.50;53.00
7700;DHT22;3892;47.794;19.126;2023-08-20T06:14:41;28.60;53.10
7700;DHT22;3892;47.794;19.126;2023-08-20T06:17:09;28.50;52.50
7700;DHT22;3892;47.794;19.126;2023-08-20T06:19:38;28.60;52.50
7700;DHT22;3892;47.794;19.126;2023-08-20T06:22:08;28.70;52.70
7700;DHT22;3892;47.794;19.126;2023-08-20T06:24:36;28.70;52.60
7700;DHT22;3892;47.794;19.126;2023-08-20T06:27:04;28.70;52.40
7700;DHT22;3892;47.794;19.126;2023-08-20T06:29:32;28.70;51.30
7700;DHT22;3892;47.794;19.126;2023-08-20T06:32:00;28.70;51.30
7700;DHT22;3892;47.794;19.126;2023-08-20T06:34:28;28.80;51.40
7700;DHT22;3892;47.794;19.126;2023-08-20T06:36:56;28.80;51.40
7700;DHT22;3892;47.794;19.126;2023-08-20T06:39:26;28.90;50.90
7700;DHT22;3892;47.794;19.126;2023-08-20T06:41:54;28.90;51.00
7700;DHT22;3892;47.794;19.126;2023-08-20T06:44:22;29.00;50.90
7700;DHT22;3892;47.794;19.126;2023-08-20T06:46:50;29.00;50.90
7700;DHT22;3892;47.794;19.126;2023-08-20T06:49:18;29.10;50.90
7700;DHT22;3892;47.794;19.126;2023-08-20T06:51:46;29.10;50.80
7700;DHT22;3892;47.794;19.126;2023-08-20T06:54:15;29.10;51.10
7700;DHT22;3892;47.794;19.126;2023-08-20T06:56:44;29.20;51.30
7700;DHT22;3892;47.794;19.126;2023-08-20T06:59:13;29.20;51.60
7700;DHT22;3892;47.794;19.126;2023-08-20T07:01:41;29.20;51.80
7700;DHT22;3892;47.794;19.126;2023-08-20T07:04:09;29.30;51.50
7700;DHT22;3892;47.794;19.126;2023-08-20T07:06:39;29.30;51.40
7700;DHT22;3892;47.794;19.126;2023-08-20T07:09:08;29.40;51.70
7700;DHT22;3892;47.794;19.126;2023-08-20T07:11:36;29.40;51.20
7700;DHT22;3892;47.794;19.126;2023-08-20T07:14:06;29.40;50.80
7700;DHT22;3892;47.794;19.126;2023-08-20T07:16:34;29.40;51.20
7700;DHT22;3892;47.794;19.126;2023-08-20T07:19:02;29.40;51.20
7700;DHT22;3892;47.794;19.126;2023-08-20T07:21:31;29.50;51.40
7700;DHT22;3892;47.794;19.126;2023-08-20T07:23:59;29.50;50.90
7700;DHT22;3892;47.794;19.126;2023-08-20T07:26:27;29.50;51.00
7700;DHT22;3892;47.794;19.126;2023-08-20T07:28:55;29.60;51.10
7700;DHT22;3892;47.794;19.126;2023-08-20T07:31:30;29.60;51.30
7700;DHT22;3892;47.794;19.126;2023-08-20T07:34:00;29.70;51.60
7700;DHT22;3892;47.794;19.126;2023-08-20T07:36:31;29.80;51.80
7700;DHT22;3892;47.794;19.126;2023-08-20T07:38:59;29.80;51.80
7700;DHT22;3892;47.794;19.126;2023-08-20T07:41:28;29.90;51.70
7700;DHT22;3892;47.794;19.126;2023-08-20T07:43:56;29.90;51.80
7700;DHT22;3892;47.794;19.126;2023-08-20T07:46:24;30.00;51.40
7700;DHT22;3892;47.794;19.126;2023-08-20T07:48:54;30.00;51.90
7700;DHT22;3892;47.794;19.126;2023-08-20T07:51:22;30.10;51.60
7700;DHT22;3892;47.794;19.126;2023-08-20T07:53:50;30.10;51.60
7700;DHT22;3892;47.794;19.126;2023-08-20T07:56:18;30.20;51.10
7700;DHT22;3892;47.794;19.126;2023-08-20T07:58:46;30.20;50.70
7700;DHT22;3892;47.794;19.126;2023-08-20T08:01:14;30.30;51.30
7700;DHT22;3892;47.794;19.126;2023-08-20T08:03:43;30.30;50.60
7700;DHT22;3892;47.794;19.126;2023-08-20T08:06:13;30.30;50.80
7700;DHT22;3892;47.794;19.126;2023-08-20T08:08:43;30.40;51.20
7700;DHT22;3892;47.794;19.126;2023-08-20T08:11:11;30.40;51.00
7700;DHT22;3892;47.794;19.126;2023-08-20T08:13:39;30.40;50.80
7700;DHT22;3892;47.794;19.126;2023-08-20T08:16:07;30.50;51.40
7700;DHT22;3892;47.794;19.126;2023-08-20T08:18:36;30.60;51.20
7700;DHT22;3892;47.794;19.126;2023-08-20T08:21:04;30.60;51.40
7700;DHT22;3892;47.794;19.126;2023-08-20T08:23:33;30.60;51.90
7700;DHT22;3892;47.794;19.126;2023-08-20T08:26:01;30.70;51.40
7700;DHT22;3892;47.794;19.126;2023-08-20T08:28:29;30.70;51.20
7700;DHT22;3892;47.794;19.126;2023-08-20T08:31:00;30.80;51.80
7700;DHT22;3892;47.794;19.126;2023-08-20T08:33:28;30.80;50.90
7700;DHT22;3892;47.794;19.126;2023-08-20T08:35:56;30.90;51.00
7700;DHT22;3892;47.794;19.126;2023-08-20T08:38:24;30.90;51.40
7700;DHT22;3892;47.794;19.126;2023-08-20T08:40:55;31.00;51.20
7700;DHT22;3892;47.794;19.126;2023-08-20T08:43:23;31.10;50.20
7700;DHT22;3892;47.794;19.126;2023-08-20T08:45:55;31.10;49.90
7700;DHT22;3892;47.794;19.126;2023-08-20T08:48:25;31.20;50.20
7700;DHT22;3892;47.794;19.126;2023-08-20T08:50:53;31.20;49.50
7700;DHT22;3892;47.794;19.126;2023-08-20T08:53:24;31.30;49.90
7700;DHT22;3892;47.794;19.126;2023-08-20T08:55:54;31.40;49.10
7700;DHT22;3892;47.794;19.126;2023-08-20T08:58:22;31.40;49.70
7700;DHT22;3892;47.794;19.126;2023-08-20T09:00:50;31.50;50.20
7700;DHT22;3892;47.794;19.126;2023-08-20T09:03:18;31.50;48.70
7700;DHT22;3892;47.794;19.126;2023-08-20T09:05:47;31.60;49.80
7700;DHT22;3892;47.794;19.126;2023-08-20T09:08:22;31.70;49.80
7700;DHT22;3892;47.794;19.126;2023-08-20T09:10:51;31.70;49.70
7700;DHT22;3892;47.794;19.126;2023-08-20T09:13:24;31.80;49.80
7700;DHT22;3892;47.794;19.126;2023-08-20T09:15:52;31.80;49.90
7700;DHT22;3892;47.794;19.126;2023-08-20T09:18:21;31.90;50.60
7700;DHT22;3892;47.794;19.126;2023-08-20T09:20:50;32.00;50.30
7700;DHT22;3892;47.794;19.126;2023-08-20T09:23:19;32.00;50.30
7700;DHT22;3892;47.794;19.126;2023-08-20T09:25:47;32.10;50.30
7700;DHT22;3892;47.794;19.126;2023-08-20T09:28:16;32.10;48.70
7700;DHT22;3892;47.794;19.126;2023-08-20T09:30:59;32.20;49.20
7700;DHT22;3892;47.794;19.126;2023-08-20T09:33:29;32.30;49.60
7700;DHT22;3892;47.794;19.126;2023-08-20T09:35:58;32.30;49.10
7700;DHT22;3892;47.794;19.126;2023-08-20T09:38:27;32.40;49.10
7700;DHT22;3892;47.794;19.126;2023-08-20T09:40:55;32.40;48.90
7700;DHT22;3892;47.794;19.126;2023-08-20T09:43:25;32.50;48.20
7700;DHT22;3892;47.794;19.126;2023-08-20T09:45:58;32.60;47.20
7700;DHT22;3892;47.794;19.126;2023-08-20T09:48:33;32.60;46.30
7700;DHT22;3892;47.794;19.126;2023-08-20T09:51:04;32.70;47.70
7700;DHT22;3892;47.794;19.126;2023-08-20T09:53:37;32.80;47.30
7700;DHT22;3892;47.794;19.126;2023-08-20T09:56:14;32.90;47.90
7700;DHT22;3892;47.794;19.126;2023-08-20T09:58:44;32.90;47.10
7700;DHT22;3892;47.794;19.126;2023-08-20T10:01:14;32.90;47.00
7700;DHT22;3892;47.794;19.126;2023-08-20T10:03:43;33.00;46.80
7700;DHT22;3892;47.794;19.126;2023-08-20T10:06:11;33.00;47.20
7700;DHT22;3892;47.794;19.126;2023-08-20T10:08:39;33.10;47.30
7700;DHT22;3892;47.794;19.126;2023-08-20T10:11:08;33.20;46.90
7700;DHT22;3892;47.794;19.126;2023-08-20T10:13:37;33.20;47.30
7700;DHT22;3892;47.794;19.126;2023-08-20T10:16:05;33.30;45.90
7700;DHT22;3892;47.794;19.126;2023-08-20T10:18:36;33.40;46.20
7700;DHT22;3892;47.794;19.126;2023-08-20T10:21:05;33.40;46.90
7700;DHT22;3892;47.794;19.126;2023-08-20T10:23:35;33.50;46.90
7700;DHT22;3892;47.794;19.126;2023-08-20T10:26:07;33.50;47.10
7700;DHT22;3892;47.794;19.126;2023-08-20T10:28:36;33.70;47.20
7700;DHT22;3892;47.794;19.126;2023-08-20T10:31:06;33.70;47.10
7700;DHT22;3892;47.794;19.126;2023-08-20T10:33:37;33.80;47.10
7700;DHT22;3892;47.794;19.126;2023-08-20T10:36:12;33.90;46.50
7700;DHT22;3892;47.794;19.126;2023-08-20T10:38:41;33.90;46.30
7700;DHT22;3892;47.794;19.126;2023-08-20T10:41:09;34.10;46.60
7700;DHT22;3892;47.794;19.126;2023-08-20T10:43:38;34.20;47.40
7700;DHT22;3892;47.794;19.126;2023-08-20T10:46:15;34.20;46.40
7700;DHT22;3892;47.794;19.126;2023-08-20T10:48:47;34.30;46.40
7700;DHT22;3892;47.794;19.126;2023-08-20T10:51:17;34.40;46.70
7700;DHT22;3892;47.794;19.126;2023-08-20T10:54:03;34.50;46.60
7700;DHT22;3892;47.794;19.126;2023-08-20T10:56:44;34.50;46.50
7700;DHT22;3892;47.794;19.126;2023-08-20T10:59:17;34.60;46.80
7700;DHT22;3892;47.794;19.126;2023-08-20T11:01:46;34.70;46.20
7700;DHT22;3892;47.794;19.126;2023-08-20T11:04:18;34.80;46.40
7700;DHT22;3892;47.794;19.126;2023-08-20T11:06:50;34.90;46.20
7700;DHT22;3892;47.794;19.126;2023-08-20T11:09:21;35.00;45.70
7700;DHT22;3892;47.794;19.126;2023-08-20T11:11:50;35.00;45.50
7700;DHT22;3892;47.794;19.126;2023-08-20T11:14:19;35.10;45.50
7700;DHT22;3892;47.794;19.126;2023-08-20T11:16:48;35.20;46.00
7700;DHT22;3892;47.794;19.126;2023-08-20T11:19:21;35.30;45.50
7700;DHT22;3892;47.794;19.126;2023-08-20T11:21:50;35.30;45.50
7700;DHT22;3892;47.794;19.126;2023-08-20T11:24:18;35.40;45.30
7700;DHT22;3892;47.794;19.126;2023-08-20T11:26:48;35.40;45.40
7700;DHT22;3892;47.794;19.126;2023-08-20T11:29:17;35.50;44.60
7700;DHT22;3892;47.794;19.126;2023-08-20T11:31:47;35.60;45.30
7700;DHT22;3892;47.794;19.126;2023-08-20T11:34:16;35.70;44.20
7700;DHT22;3892;47.794;19.126;2023-08-20T11:36:47;35.80;43.80
7700;DHT22;3892;47.794;19.126;2023-08-20T11:39:15;35.80;44.10
7700;DHT22;3892;47.794;19.126;2023-08-20T11:41:44;36.00;44.60
7700;DHT22;3892;47.794;19.126;2023-08-20T11:44:19;36.10;43.80
7700;DHT22;3892;47.794;19.126;2023-08-20T11:46:48;36.20;43.60
7700;DHT22;3892;47.794;19.126;2023-08-20T11:49:16;36.20;43.50
7700;DHT22;3892;47.794;19.126;2023-08-20T11:51:47;36.30;43.60
7700;DHT22;3892;47.794;19.126;2023-08-20T11:54:17;36.40;43.60
7700;DHT22;3892;47.794;19.126;2023-08-20T11:56:47;36.40;43.50
7700;DHT22;3892;47.794;19.126;2023-08-20T11:59:16;36.50;43.50
7700;DHT22;3892;47.794;19.126;2023-08-20T12:01:50;36.60;43.60
7700;DHT22;3892;47.794;19.126;2023-08-20T12:04:18;36.60;43.40
7700;DHT22;3892;47.794;19.126;2023-08-20T12:07:01;36.70;43.40
7700;DHT22;3892;47.794;19.126;2023-08-20T12:09:30;36.80;42.80
7700;DHT22;3892;47.794;19.126;2023-08-20T12:11:58;36.80;41.60
7700;DHT22;3892;47.794;19.126;2023-08-20T12:14:26;36.90;42.00
7700;DHT22;3892;47.794;19.126;2023-08-20T12:16:55;37.00;42.10
7700;DHT22;3892;47.794;19.126;2023-08-20T12:19:24;37.00;41.20
7700;DHT22;3892;47.794;19.126;2023-08-20T12:21:54;37.00;41.10
7700;DHT22;3892;47.794;19.126;2023-08-20T12:24:22;37.00;41.30
7700;DHT22;3892;47.794;19.126;2023-08-20T12:26:50;37.10;41.70
7700;DHT22;3892;47.794;19.126;2023-08-20T12:29:18;37.10;40.90
7700;DHT22;3892;47.794;19.126;2023-08-20T12:31:46;37.20;40.70
7700;DHT22;3892;47.794;19.126;2023-08-20T12:34:14;37.20;41.50
7700;DHT22;3892;47.794;19.126;2023-08-20T12:36:42;37.30;41.60
7700;DHT22;3892;47.794;19.126;2023-08-20T12:39:12;37.20;40.60
7700;DHT22;3892;47.794;19.126;2023-08-20T12:41:41;37.20;40.60
7700;DHT22;3892;47.794;19.126;2023-08-20T12:44:09;37.30;41.00
7700;DHT22;3892;47.794;19.126;2023-08-20T12:46:37;37.30;42.20
7700;DHT22;3892;47.794;19.126;2023-08-20T12:49:05;37.30;40.70
7700;DHT22;3892;47.794;19.126;2023-08-20T12:51:34;37.30;40.10
7700;DHT22;3892;47.794;19.126;2023-08-20T12:54:02;37.30;40.70
7700;DHT22;3892;47.794;19.126;2023-08-20T12:56:31;37.30;41.10
7700;DHT22;3892;47.794;19.126;2023-08-20T12:59:01;37.40;41.20
7700;DHT22;3892;47.794;19.126;2023-08-20T13:01:30;37.40;40.40
7700;DHT22;3892;47.794;19.126;2023-08-20T13:03:59;37.40;39.90
7700;DHT22;3892;47.794;19.126;2023-08-20T13:06:29;37.50;40.50
7700;DHT22;3892;47.794;19.126;2023-08-20T13:08:57;37.50;39.60
7700;DHT22;3892;47.794;19.126;2023-08-20T13:11:26;37.60;40.40
7700;DHT22;3892;47.794;19.126;2023-08-20T13:13:59;37.70;40.00
7700;DHT22;3892;47.794;19.126;2023-08-20T13:16:28;37.70;39.40
7700;DHT22;3892;47.794;19.126;2023-08-20T13:18:56;37.70;38.90
7700;DHT22;3892;47.794;19.126;2023-08-20T13:21:25;37.80;38.90
7700;DHT22;3892;47.794;19.126;2023-08-20T13:23:53;37.80;37.80
7700;DHT22;3892;47.794;19.126;2023-08-20T13:26:21;37.90;38.00
7700;DHT22;3892;47.794;19.126;2023-08-20T13:28:49;37.90;37.50
7700;DHT22;3892;47.794;19.126;2023-08-20T13:31:19;37.80;37.10
7700;DHT22;3892;47.794;19.126;2023-08-20T13:33:47;37.80;37.50
7700;DHT22;3892;47.794;19.126;2023-08-20T13:36:16;37.80;37.60
7700;DHT22;3892;47.794;19.126;2023-08-20T13:38:45;37.70;37.20
7700;DHT22;3892;47.794;19.126;2023-08-20T13:41:13;37.70;37.90
7700;DHT22;3892;47.794;19.126;2023-08-20T13:43:42;37.80;38.30
7700;DHT22;3892;47.794;19.126;2023-08-20T13:46:10;37.90;37.40
7700;DHT22;3892;47.794;19.126;2023-08-20T13:48:40;38.00;37.30
7700;DHT22;3892;47.794;19.126;2023-08-20T13:51:08;38.10;37.50
7700;DHT22;3892;47.794;19.126;2023-08-20T13:53:37;38.10;37.80
7700;DHT22;3892;47.794;19.126;2023-08-20T13:56:06;38.20;36.90
7700;DHT22;3892;47.794;19.126;2023-08-20T13:58:34;38.20;37.10
7700;DHT22;3892;47.794;19.126;2023-08-20T14:01:03;38.30;36.60
7700;DHT22;3892;47.794;19.126;2023-08-20T14:03:31;38.30;36.20
7700;DHT22;3892;47.794;19.126;2023-08-20T14:06:00;38.30;37.50
7700;DHT22;3892;47.794;19.126;2023-08-20T14:08:30;38.30;36.60
7700;DHT22;3892;47.794;19.126;2023-08-20T14:10:59;38.30;36.10
7700;DHT22;3892;47.794;19.126;2023-08-20T14:13:27;38.30;36.30
7700;DHT22;3892;47.794;19.126;2023-08-20T14:15:56;38.30;36.30
7700;DHT22;3892;47.794;19.126;2023-08-20T14:18:24;38.30;36.30
7700;DHT22;3892;47.794;19.126;2023-08-20T14:20:53;38.30;35.30
7700;DHT22;3892;47.794;19.126;2023-08-20T14:23:23;38.40;36.10
7700;DHT22;3892;47.794;19.126;2023-08-20T14:25:51;38.40;36.40
7700;DHT22;3892;47.794;19.126;2023-08-20T14:28:21;38.40;36.90
7700;DHT22;3892;47.794;19.126;2023-08-20T14:30:49;38.40;36.90
7700;DHT22;3892;47.794;19.126;2023-08-20T14:33:20;38.40;37.50
7700;DHT22;3892;47.794;19.126;2023-08-20T14:35:48;38.40;36.80
7700;DHT22;3892;47.794;19.126;2023-08-20T14:38:17;38.50;36.60
7700;DHT22;3892;47.794;19.126;2023-08-20T14:40:46;38.50;36.80
7700;DHT22;3892;47.794;19.126;2023-08-20T14:43:15;38.50;37.50
7700;DHT22;3892;47.794;19.126;2023-08-20T14:45:45;38.50;36.80
7700;DHT22;3892;47.794;19.126;2023-08-20T14:48:13;38.60;37.70
7700;DHT22;3892;47.794;19.126;2023-08-20T14:50:42;38.50;37.50
7700;DHT22;3892;47.794;19.126;2023-08-20T14:53:10;38.50;37.00
7700;DHT22;3892;47.794;19.126;2023-08-20T14:55:39;38.40;37.80
7700;DHT22;3892;47.794;19.126;2023-08-20T14:58:08;38.40;37.90
7700;DHT22;3892;47.794;19.126;2023-08-20T15:00:37;38.50;38.20
7700;DHT22;3892;47.794;19.126;2023-08-20T15:03:06;38.40;37.50
7700;DHT22;3892;47.794;19.126;2023-08-20T15:05:35;38.50;38.40
7700;DHT22;3892;47.794;19.126;2023-08-20T15:08:03;38.50;38.10
7700;DHT22;3892;47.794;19.126;2023-08-20T15:10:32;38.40;38.20
7700;DHT22;3892;47.794;19.126;2023-08-20T15:13:00;38.40;38.60
7700;DHT22;3892;47.794;19.126;2023-08-20T15:15:31;38.40;38.60
7700;DHT22;3892;47.794;19.126;2023-08-20T15:17:59;38.30;38.60
7700;DHT22;3892;47.794;19.126;2023-08-20T15:20:28;38.30;39.10
7700;DHT22;3892;47.794;19.126;2023-08-20T15:22:57;38.20;38.90
7700;DHT22;3892;47.794;19.126;2023-08-20T15:25:26;38.20;39.20
7700;DHT22;3892;47.794;19.126;2023-08-20T15:27:54;38.20;39.60
7700;DHT22;3892;47.794;19.126;2023-08-20T15:30:22;38.20;39.10
7700;DHT22;3892;47.794;19.126;2023-08-20T15:32:53;38.20;38.70
7700;DHT22;3892;47.794;19.126;2023-08-20T15:35:22;38.20;38.60
7700;DHT22;3892;47.794;19.126;2023-08-20T15:37:50;38.20;38.60
7700;DHT22;3892;47.794;19.126;2023-08-20T15:40:20;38.20;38.70
7700;DHT22;3892;47.794;19.126;2023-08-20T15:42:49;38.20;38.40
7700;DHT22;3892;47.794;19.126;2023-08-20T15:45:18;38.20;38.80
7700;DHT22;3892;47.794;19.126;2023-08-20T15:47:46;38.10;38.70
7700;DHT22;3892;47.794;19.126;2023-08-20T15:50:16;38.10;39.10
7700;DHT22;3892;47.794;19.126;2023-08-20T15:52:44;38.10;38.50
7700;DHT22;3892;47.794;19.126;2023-08-20T15:55:14;38.10;38.90
7700;DHT22;3892;47.794;19.126;2023-08-20T15:57:42;38.10;39.20
7700;DHT22;3892;47.794;19.126;2023-08-20T16:00:12;38.10;38.70